createdAt,value
2024-02-04T00:00:40.520Z,99477.06
2024-02-04T00:03:07.836Z,99473.16
2024-02-04T00:05:35.204Z,99471.28
2024-02-04T00:08:03.378Z,99459.56
2024-02-04T00:10:30.855Z,99470.97
2024-02-04T00:12:58.383Z,99480.03
2024-02-04T00:15:25.809Z,99478.34
2024-02-04T00:17:53.041Z,99473.16
2024-02-04T00:20:20.246Z,99472.97
2024-02-04T00:22:47.556Z,99476.16
2024-02-04T00:25:16.348Z,99469.78
2024-02-04T00:27:43.768Z,99479.16
2024-02-04T00:30:11.333Z,99469.97
2024-02-04T00:32:38.841Z,99470.66
2024-02-04T00:35:06.688Z,99479.50
2024-02-04T00:37:33.939Z,99482.56
2024-02-04T00:40:01.347Z,99478.81
2024-02-04T00:42:28.634Z,99481.84
2024-02-04T00:44:56.034Z,99481.25
2024-02-04T00:47:23.169Z,99476.41
2024-02-04T00:49:50.683Z,99474.47
2024-02-04T00:52:17.887Z,99472.84
2024-02-04T00:54:45.278Z,99473.28
2024-02-04T00:57:12.560Z,99472.94
2024-02-04T00:59:39.791Z,99466.59
2024-02-04T01:02:07.813Z,99468.09
2024-02-04T01:04:35.195Z,99471.13
2024-02-04T01:07:02.695Z,99471.72
2024-02-04T01:09:30.949Z,99482.84
2024-02-04T01:11:58.434Z,99471.00
2024-02-04T01:14:25.823Z,99462.44
2024-02-04T01:16:53.278Z,99481.69
2024-02-04T01:19:20.834Z,99477.00
2024-02-04T01:21:48.113Z,99457.22
2024-02-04T01:24:15.477Z,99463.09
2024-02-04T01:26:43.652Z,99460.13
2024-02-04T01:29:10.878Z,99457.09
2024-02-04T01:31:38.312Z,99450.34
2024-02-04T01:34:05.797Z,99473.44
2024-02-04T01:36:33.630Z,99467.03
2024-02-04T01:39:00.886Z,99469.38
2024-02-04T01:41:29.064Z,99462.72
2024-02-04T01:43:56.527Z,99460.56
2024-02-04T01:46:24.382Z,99454.16
2024-02-04T01:48:51.937Z,99469.66
2024-02-04T01:51:19.163Z,99464.44
2024-02-04T01:53:47.150Z,99458.44
2024-02-04T01:56:14.312Z,99471.13
2024-02-04T01:58:41.736Z,99469.63
2024-02-04T02:01:10.030Z,99473.88
2024-02-04T02:03:37.457Z,99483.91
2024-02-04T02:06:04.991Z,99473.22
2024-02-04T02:08:32.885Z,99485.34
2024-02-04T02:11:29.291Z,99485.19
2024-02-04T02:13:59.325Z,99484.16
2024-02-04T02:16:27.452Z,99480.78
2024-02-04T02:18:56.074Z,99488.31
2024-02-04T02:21:45.154Z,99488.31
2024-02-04T02:24:23.185Z,99481.75
2024-02-04T02:26:54.344Z,99485.91
2024-02-04T02:29:21.642Z,99463.88
2024-02-04T02:31:49.661Z,99484.31
2024-02-04T02:34:29.850Z,99475.38
2024-02-04T02:37:23.190Z,99477.44
2024-02-04T02:39:59.760Z,99483.28
2024-02-04T02:42:27.730Z,99477.22
2024-02-04T02:44:55.571Z,99476.56
2024-02-04T02:47:24.108Z,99471.66
2024-02-04T02:49:56.314Z,99479.22
2024-02-04T02:52:23.763Z,99476.56
2024-02-04T02:54:51.787Z,99477.81
2024-02-04T02:57:19.247Z,99487.16
2024-02-04T02:59:46.551Z,99486.75
2024-02-04T03:02:15.095Z,99477.00
2024-02-04T03:04:42.549Z,99481.00
2024-02-04T03:07:10.041Z,99486.44
2024-02-04T03:09:37.486Z,99487.19
2024-02-04T03:12:04.992Z,99496.53
2024-02-04T03:14:32.457Z,99492.44
2024-02-04T03:17:00.036Z,99497.47
2024-02-04T03:19:28.197Z,99495.44
2024-02-04T03:21:55.816Z,99511.03
2024-02-04T03:24:23.138Z,99505.69
2024-02-04T03:26:50.767Z,99498.78
2024-02-04T03:29:17.918Z,99490.38
2024-02-04T03:31:45.347Z,99493.44
2024-02-04T03:34:12.767Z,99497.31
2024-02-04T03:36:40.229Z,99510.69
2024-02-04T03:39:07.649Z,99500.13
2024-02-04T03:41:35.003Z,99505.69
2024-02-04T03:44:02.438Z,99495.69
2024-02-04T03:46:29.866Z,99494.69
2024-02-04T03:48:57.876Z,99501.69
2024-02-04T03:51:25.200Z,99497.38
2024-02-04T03:53:53.362Z,99498.41
2024-02-04T03:56:20.905Z,99499.66
2024-02-04T03:58:48.279Z,99494.53
2024-02-04T04:01:15.643Z,99494.19
2024-02-04T04:03:46.166Z,99498.09
2024-02-04T04:06:13.838Z,99493.94
2024-02-04T04:08:41.260Z,99499.44
2024-02-04T04:11:11.661Z,99488.16
2024-02-04T04:13:39.209Z,99504.88
2024-02-04T04:16:06.957Z,99502.88
2024-02-04T04:18:34.657Z,99479.69
2024-02-04T04:21:02.379Z,99500.19
2024-02-04T04:23:29.972Z,99493.34
2024-02-04T04:25:57.319Z,99493.63
2024-02-04T04:28:24.650Z,99507.19
2024-02-04T04:30:52.078Z,99511.44
2024-02-04T04:33:19.785Z,99509.03
2024-02-04T04:35:47.120Z,99498.94
2024-02-04T04:38:14.305Z,99501.03
2024-02-04T04:40:44.485Z,99502.28
2024-02-04T04:43:11.819Z,99503.69
2024-02-04T04:45:39.162Z,99497.78
2024-02-04T04:48:08.985Z,99501.28
2024-02-04T04:50:37.006Z,99509.06
2024-02-04T04:53:04.485Z,99508.31
2024-02-04T04:55:31.865Z,99501.81
2024-02-04T04:57:59.101Z,99499.28
2024-02-04T05:00:26.470Z,99500.41
2024-02-04T05:02:53.663Z,99509.00
2024-02-04T05:05:20.948Z,99517.25
2024-02-04T05:07:48.489Z,99516.25
2024-02-04T05:10:15.884Z,99519.50
2024-02-04T05:12:43.213Z,99514.19
2024-02-04T05:15:10.811Z,99524.66
2024-02-04T05:17:38.826Z,99521.75
2024-02-04T05:20:08.466Z,99528.38
2024-02-04T05:22:35.925Z,99528.16
2024-02-04T05:25:04.017Z,99518.41
2024-02-04T05:27:31.621Z,99530.75
2024-02-04T05:29:58.965Z,99523.50
2024-02-04T05:32:26.285Z,99522.91
2024-02-04T05:34:53.655Z,99534.41
2024-02-04T05:37:21.044Z,99535.41
2024-02-04T05:39:48.329Z,99542.28
2024-02-04T05:42:15.664Z,99540.69
2024-02-04T05:44:43.074Z,99533.88
2024-02-04T05:47:10.425Z,99546.28
2024-02-04T05:49:37.782Z,99538.75
2024-02-04T05:52:05.685Z,99543.25
2024-02-04T05:54:33.027Z,99534.16
2024-02-04T05:57:00.256Z,99550.44
2024-02-04T05:59:27.514Z,99544.06
2024-02-04T06:01:54.913Z,99544.59
2024-02-04T06:04:22.166Z,99552.03
2024-02-04T06:06:49.642Z,99545.53
2024-02-04T06:09:17.008Z,99552.59
2024-02-04T06:11:47.782Z,99545.44
2024-02-04T06:14:15.113Z,99543.13
2024-02-04T06:16:42.333Z,99536.09
2024-02-04T06:19:10.719Z,99537.13
2024-02-04T06:21:38.241Z,99523.59
2024-02-04T06:24:05.847Z,99533.78
2024-02-04T06:26:33.549Z,99541.53
2024-02-04T06:29:00.888Z,99529.84
2024-02-04T06:31:28.196Z,99543.75
2024-02-04T06:33:55.645Z,99527.59
2024-02-04T06:36:24.044Z,99517.91
2024-02-04T06:38:52.344Z,99517.66
2024-02-04T06:41:19.895Z,99519.66
2024-02-04T06:43:47.714Z,99521.16
2024-02-04T06:46:15.147Z,99530.50
2024-02-04T06:48:42.434Z,99525.41
2024-02-04T06:51:10.243Z,99518.91
2024-02-04T06:53:37.595Z,99533.84
2024-02-04T06:56:05.132Z,99534.75
2024-02-04T06:58:32.576Z,99529.72
2024-02-04T07:00:59.884Z,99530.69
2024-02-04T07:03:27.415Z,99529.41
2024-02-04T07:05:55.141Z,99528.59
2024-02-04T07:08:22.536Z,99525.84
2024-02-04T07:10:50.175Z,99515.66
2024-02-04T07:13:17.713Z,99537.50
2024-02-04T07:15:44.961Z,99534.88
2024-02-04T07:18:12.822Z,99540.44
2024-02-04T07:20:40.089Z,99542.94
2024-02-04T07:23:07.419Z,99535.63
2024-02-04T07:25:36.608Z,99536.22
2024-02-04T07:28:04.589Z,99535.22
2024-02-04T07:30:32.025Z,99523.09
2024-02-04T07:32:59.713Z,99547.47
2024-02-04T07:35:27.605Z,99544.38
2024-02-04T07:37:55.591Z,99534.28
2024-02-04T07:40:23.306Z,99540.03
2024-02-04T07:42:50.701Z,99536.41
2024-02-04T07:45:18.085Z,99549.94
2024-02-04T07:47:45.590Z,99553.09
2024-02-04T07:50:13.421Z,99553.41
2024-02-04T07:52:42.755Z,99557.41
2024-02-04T07:55:12.208Z,99556.44
2024-02-04T07:57:39.511Z,99554.19
2024-02-04T08:00:07.795Z,99561.59
2024-02-04T08:02:45.776Z,99555.75
2024-02-04T08:05:13.431Z,99552.69
2024-02-04T08:07:40.848Z,99559.69
2024-02-04T08:10:08.962Z,99541.28
2024-02-04T08:12:36.595Z,99563.72
2024-02-04T08:15:04.447Z,99564.88
2024-02-04T08:17:34.271Z,99570.47
2024-02-04T08:20:01.781Z,99574.81
2024-02-04T08:22:29.700Z,99582.78
2024-02-04T08:24:57.103Z,99577.56
2024-02-04T08:27:24.411Z,99581.84
2024-02-04T08:29:51.806Z,99574.50
2024-02-04T08:32:19.083Z,99577.91
2024-02-04T08:34:46.471Z,99590.41
2024-02-04T08:37:14.000Z,99579.28
2024-02-04T08:39:41.618Z,99572.53
2024-02-04T08:42:09.112Z,99575.09
2024-02-04T08:44:39.804Z,99568.94
2024-02-04T08:47:11.482Z,99569.50
2024-02-04T08:49:39.200Z,99566.38
2024-02-04T08:52:06.952Z,99567.56
2024-02-04T08:54:34.402Z,99565.94
2024-02-04T08:57:01.850Z,99549.78
2024-02-04T08:59:29.250Z,99542.34
2024-02-04T09:01:56.735Z,99540.09
2024-02-04T09:04:24.519Z,99536.53
2024-02-04T09:06:51.938Z,99518.78
2024-02-04T09:09:19.184Z,99523.41
2024-02-04T09:11:46.633Z,99508.41
2024-02-04T09:14:14.013Z,99513.97
2024-02-04T09:16:41.693Z,99504.31
2024-02-04T09:19:09.298Z,99510.31
2024-02-04T09:21:36.870Z,99506.53
2024-02-04T09:24:04.288Z,99504.09
2024-02-04T09:26:31.911Z,99503.41
2024-02-04T09:28:59.329Z,99508.03
2024-02-04T09:31:27.473Z,99508.94
2024-02-04T09:33:56.214Z,99503.75
2024-02-04T09:36:24.535Z,99499.31
2024-02-04T09:38:52.493Z,99508.66
2024-02-04T09:41:19.761Z,99498.63
2024-02-04T09:43:47.448Z,99493.06
2024-02-04T09:46:14.875Z,99495.19
2024-02-04T09:48:42.461Z,99485.38
2024-02-04T09:51:09.893Z,99481.19
2024-02-04T09:53:37.611Z,99486.03
2024-02-04T09:56:07.761Z,99489.00
2024-02-04T09:58:36.188Z,99496.47
2024-02-04T10:01:05.278Z,99467.91
2024-02-04T10:03:32.751Z,99487.00
2024-02-04T10:06:00.385Z,99484.25
2024-02-04T10:08:27.932Z,99478.03
2024-02-04T10:10:56.246Z,99482.66
2024-02-04T10:13:25.659Z,99484.94
2024-02-04T10:15:53.613Z,99482.19
2024-02-04T10:18:21.456Z,99479.38
2024-02-04T10:20:48.938Z,99482.94
2024-02-04T10:23:16.255Z,99486.31
2024-02-04T10:25:44.029Z,99467.75
2024-02-04T10:28:11.617Z,99484.69
2024-02-04T10:30:42.137Z,99480.22
2024-02-04T10:33:09.707Z,99487.41
2024-02-04T10:35:37.221Z,99491.88
2024-02-04T10:38:05.124Z,99502.13
2024-02-04T10:40:33.369Z,99478.56
2024-02-04T10:43:05.959Z,99472.47
2024-02-04T10:45:34.530Z,99480.63
2024-02-04T10:48:03.038Z,99472.72
2024-02-04T10:50:32.078Z,99463.31
2024-02-04T10:53:00.737Z,99463.88
2024-02-04T10:55:29.911Z,99471.59
2024-02-04T10:57:57.207Z,99473.31
2024-02-04T11:00:24.604Z,99464.72
2024-02-04T11:02:52.825Z,99459.44
2024-02-04T11:05:22.327Z,99446.72
2024-02-04T11:07:49.922Z,99451.13
2024-02-04T11:10:17.391Z,99448.38
2024-02-04T11:12:44.881Z,99451.16
2024-02-04T11:15:13.348Z,99443.94
2024-02-04T11:18:08.601Z,99449.47
2024-02-04T11:20:42.011Z,99448.09
2024-02-04T11:23:28.262Z,99445.06
2024-02-04T11:25:59.107Z,99422.34
2024-02-04T11:28:27.788Z,99429.53
2024-02-04T11:30:56.674Z,99431.19
2024-02-04T11:33:24.823Z,99434.84
2024-02-04T11:36:02.347Z,99403.22
2024-02-04T11:38:37.022Z,99424.00
2024-02-04T11:41:05.282Z,99415.31
2024-02-04T11:43:36.753Z,99416.75
2024-02-04T11:46:05.583Z,99419.78
2024-02-04T11:48:35.021Z,99434.59
2024-02-04T11:51:02.932Z,99423.81
2024-02-04T11:53:33.580Z,99429.97
2024-02-04T11:56:04.999Z,99437.44
2024-02-04T11:58:33.444Z,99428.78
2024-02-04T12:01:01.245Z,99432.66
2024-02-04T12:03:35.668Z,99435.38
2024-02-04T12:06:05.160Z,99436.25
2024-02-04T12:08:35.811Z,99433.06
2024-02-04T12:11:03.637Z,99435.00
2024-02-04T12:13:30.956Z,99432.56
2024-02-04T12:15:58.391Z,99430.91
2024-02-04T12:18:26.108Z,99425.00
2024-02-04T12:20:54.383Z,99441.16
2024-02-04T12:23:22.429Z,99433.41
2024-02-04T12:25:50.196Z,99435.75
2024-02-04T12:28:19.452Z,99442.84
2024-02-04T12:30:55.045Z,99424.34
2024-02-04T12:33:22.712Z,99442.91
2024-02-04T12:35:53.729Z,99440.63
2024-02-04T12:38:21.408Z,99455.59
2024-02-04T12:40:52.124Z,99461.75
2024-02-04T12:43:19.625Z,99469.94
2024-02-04T12:45:47.117Z,99469.88
2024-02-04T12:48:16.423Z,99469.75
2024-02-04T12:50:43.667Z,99467.28
2024-02-04T12:53:14.960Z,99471.25
2024-02-04T12:55:44.238Z,99478.25
2024-02-04T12:58:18.748Z,99486.34
2024-02-04T13:00:46.363Z,99472.22
2024-02-04T13:03:16.645Z,99468.97
2024-02-04T13:05:44.226Z,99467.56
2024-02-04T13:08:11.822Z,99473.59
2024-02-04T13:10:41.179Z,99474.13
2024-02-04T13:13:11.789Z,99472.63
2024-02-04T13:15:41.910Z,99464.91
2024-02-04T13:18:09.787Z,99494.09
2024-02-04T13:20:37.211Z,99497.13
2024-02-04T13:23:07.022Z,99504.28
2024-02-04T13:25:35.159Z,99507.63
2024-02-04T13:28:02.983Z,99509.66
2024-02-04T13:30:31.374Z,99540.59
2024-02-04T13:32:59.339Z,99521.31
2024-02-04T13:35:27.156Z,99526.66
2024-02-04T13:37:56.610Z,99541.13
2024-02-04T13:40:25.835Z,99538.25
2024-02-04T13:42:53.826Z,99544.63
2024-02-04T13:45:21.303Z,99539.50
2024-02-04T13:47:48.857Z,99543.56
2024-02-04T13:50:16.412Z,99539.28
2024-02-04T13:52:43.912Z,99556.16
2024-02-04T13:55:11.423Z,99546.66
2024-02-04T13:57:38.976Z,99537.81
2024-02-04T14:00:08.836Z,99548.66
2024-02-04T14:02:37.671Z,99548.59
2024-02-04T14:05:05.493Z,99562.97
2024-02-04T14:07:33.706Z,99567.56
2024-02-04T14:10:01.292Z,99557.72
2024-02-04T14:12:30.654Z,99556.22
2024-02-04T14:14:58.569Z,99542.72
2024-02-04T14:17:26.419Z,99545.84
2024-02-04T14:19:54.099Z,99541.25
2024-02-04T14:22:23.324Z,99536.41
2024-02-04T14:24:50.815Z,99537.34
2024-02-04T14:27:18.287Z,99535.78
2024-02-04T14:29:45.684Z,99535.53
2024-02-04T14:32:13.071Z,99533.53
2024-02-04T14:34:40.736Z,99540.53
2024-02-04T14:37:09.567Z,99529.00
2024-02-04T14:39:39.215Z,99532.78
2024-02-04T14:42:06.551Z,99538.13
2024-02-04T14:44:34.363Z,99535.38
2024-02-04T14:47:01.907Z,99531.44
2024-02-04T14:49:29.957Z,99523.09
2024-02-04T14:51:57.523Z,99514.88
2024-02-04T14:54:25.111Z,99531.78
2024-02-04T14:56:52.673Z,99495.66
2024-02-04T14:59:22.723Z,99531.63
2024-02-04T15:01:51.468Z,99530.28
2024-02-04T15:04:20.156Z,99521.97
2024-02-04T15:06:48.422Z,99540.88
2024-02-04T15:09:16.441Z,99538.19
2024-02-04T15:11:44.284Z,99541.94
2024-02-04T15:14:12.796Z,99545.88
2024-02-04T15:16:41.554Z,99546.53
2024-02-04T15:19:10.084Z,99534.28
2024-02-04T15:21:38.332Z,99546.63
2024-02-04T15:24:06.978Z,99559.97
2024-02-04T15:26:35.579Z,99557.63
2024-02-04T15:29:03.608Z,99558.78
2024-02-04T15:31:32.052Z,99545.53
2024-02-04T15:34:00.132Z,99555.78
2024-02-04T15:36:27.829Z,99542.25
2024-02-04T15:38:55.140Z,99550.53
2024-02-04T15:41:22.706Z,99553.69
2024-02-04T15:43:49.968Z,99553.72
2024-02-04T15:46:18.003Z,99560.50
2024-02-04T15:48:45.635Z,99539.44
2024-02-04T15:51:13.325Z,99562.06
2024-02-04T15:53:41.721Z,99556.47
2024-02-04T15:56:09.893Z,99558.31
2024-02-04T15:58:38.984Z,99542.09
2024-02-04T16:01:16.950Z,99561.47
2024-02-04T16:03:44.831Z,99555.13
2024-02-04T16:06:12.636Z,99554.22
2024-02-04T16:08:40.776Z,99558.03
2024-02-04T16:11:17.955Z,99556.78
2024-02-04T16:13:48.681Z,99568.47
2024-02-04T16:16:20.561Z,99564.16
2024-02-04T16:18:49.076Z,99561.22
2024-02-04T16:21:16.773Z,99556.88
2024-02-04T16:23:44.387Z,99561.91
2024-02-04T16:26:11.793Z,99548.19
2024-02-04T16:28:40.404Z,99551.47
2024-02-04T16:31:08.794Z,99552.97
2024-02-04T16:33:37.057Z,99559.47
2024-02-04T16:36:06.603Z,99560.44
2024-02-04T16:38:35.313Z,99567.56
2024-02-04T16:41:02.983Z,99538.69
2024-02-04T16:43:30.550Z,99564.66
2024-02-04T16:45:57.975Z,99559.41
2024-02-04T16:48:25.623Z,99558.97
2024-02-04T16:50:54.378Z,99565.31
2024-02-04T16:53:21.580Z,99562.25
2024-02-04T16:55:49.048Z,99558.53
2024-02-04T16:58:17.385Z,99558.16
2024-02-04T17:00:45.588Z,99561.19
2024-02-04T17:03:13.388Z,99560.22
2024-02-04T17:05:51.137Z,99562.28
2024-02-04T17:08:24.957Z,99559.72
2024-02-04T17:10:53.714Z,99557.88
2024-02-04T17:13:21.837Z,99550.97
2024-02-04T17:15:49.948Z,99551.13
2024-02-04T17:18:37.624Z,99539.13
2024-02-04T17:21:05.414Z,99546.78
2024-02-04T17:23:32.775Z,99551.97
2024-02-04T17:26:01.724Z,99547.38
2024-02-04T17:28:29.492Z,99551.22
2024-02-04T17:30:57.636Z,99552.44
2024-02-04T17:33:26.945Z,99545.53
2024-02-04T17:35:54.432Z,99552.44
2024-02-04T17:38:22.306Z,99550.59
2024-02-04T17:40:49.724Z,99548.66
2024-02-04T17:43:17.613Z,99544.06
2024-02-04T17:45:45.353Z,99541.25
2024-02-04T17:48:14.465Z,99554.56
2024-02-04T17:50:41.798Z,99542.72
2024-02-04T17:53:09.408Z,99546.97
2024-02-04T17:55:40.006Z,99548.38
2024-02-04T17:58:07.612Z,99545.38
2024-02-04T18:00:35.121Z,99549.06
2024-02-04T18:03:06.660Z,99549.22
2024-02-04T18:08:07.095Z,99545.03
2024-02-04T18:10:36.359Z,99548.59
2024-02-04T18:13:04.060Z,99541.16
2024-02-04T18:15:32.203Z,99536.47
2024-02-04T18:17:59.689Z,99543.75
2024-02-04T18:20:27.026Z,99533.25
2024-02-04T18:22:54.361Z,99537.81
2024-02-04T18:25:21.717Z,99534.69
2024-02-04T18:27:49.246Z,99525.91
2024-02-04T18:30:20.539Z,99528.59
2024-02-04T18:32:48.943Z,99529.91
2024-02-04T18:35:16.316Z,99529.25
2024-02-04T18:37:44.258Z,99532.50
2024-02-04T18:40:12.093Z,99517.91
2024-02-04T18:42:40.107Z,99519.00
2024-02-04T18:45:08.489Z,99508.28
2024-02-04T18:47:36.034Z,99522.72
2024-02-04T18:50:03.678Z,99525.09
2024-02-04T18:52:31.898Z,99516.22
2024-02-04T18:54:59.594Z,99518.28
2024-02-04T18:57:27.365Z,99506.53
2024-02-04T18:59:54.583Z,99507.41
2024-02-04T19:02:21.893Z,99518.19
2024-02-04T19:04:50.961Z,99505.91
2024-02-04T19:07:18.621Z,99521.69
2024-02-04T19:09:46.043Z,99510.34
2024-02-04T19:12:13.660Z,99508.53
2024-02-04T19:14:41.729Z,99509.94
2024-02-04T19:17:09.112Z,99511.63
2024-02-04T19:19:37.752Z,99507.25
2024-02-04T19:22:05.171Z,99503.81
2024-02-04T19:24:32.607Z,99479.38
2024-02-04T19:27:00.088Z,99505.31
2024-02-04T19:29:27.345Z,99502.56
2024-02-04T19:31:56.254Z,99496.94
2024-02-04T19:34:23.828Z,99502.66
2024-02-04T19:36:51.215Z,99501.44
2024-02-04T19:39:18.470Z,99500.03
2024-02-04T19:41:45.910Z,99494.38
2024-02-04T19:44:13.306Z,99498.22
2024-02-04T19:46:40.765Z,99496.63
2024-02-04T19:49:08.133Z,99493.50
2024-02-04T19:51:35.446Z,99495.97
2024-02-04T19:54:02.819Z,99491.28
2024-02-04T19:56:30.450Z,99489.13
2024-02-04T19:59:04.467Z,99474.03
2024-02-04T20:01:32.341Z,99485.25
2024-02-04T20:03:59.828Z,99475.44
2024-02-04T20:06:27.271Z,99484.69
2024-02-04T20:08:56.319Z,99483.69
2024-02-04T20:11:23.703Z,99465.94
2024-02-04T20:13:50.973Z,99479.59
2024-02-04T20:16:18.298Z,99474.38
2024-02-04T20:18:45.836Z,99476.69
2024-02-04T20:21:13.858Z,99479.97
2024-02-04T20:23:41.570Z,99483.34
2024-02-04T20:26:09.112Z,99479.44
2024-02-04T20:28:36.628Z,99491.22
2024-02-04T20:31:06.091Z,99469.53
2024-02-04T20:33:34.479Z,99470.84
2024-02-04T20:36:01.933Z,99459.25
2024-02-04T20:38:29.319Z,99466.94
2024-02-04T20:40:56.534Z,99458.03
2024-02-04T20:43:23.978Z,99444.63
2024-02-04T20:45:51.692Z,99457.59
2024-02-04T20:48:19.040Z,99453.69
2024-02-04T20:50:46.307Z,99457.44
2024-02-04T20:53:16.000Z,99464.59
2024-02-04T20:55:43.586Z,99448.03
2024-02-04T20:58:10.773Z,99449.28
2024-02-04T21:00:39.140Z,99454.50
2024-02-04T21:03:07.739Z,99450.41
2024-02-04T21:05:36.222Z,99433.06
2024-02-04T21:08:07.311Z,99435.47
2024-02-04T21:10:35.229Z,99441.03
2024-02-04T21:13:03.655Z,99418.97
2024-02-04T21:15:30.914Z,99434.81
2024-02-04T21:17:58.637Z,99441.56
2024-02-04T21:20:26.302Z,99436.38
2024-02-04T21:22:53.905Z,99440.56
2024-02-04T21:25:21.176Z,99443.34
2024-02-04T21:27:48.504Z,99444.59
2024-02-04T21:30:15.806Z,99442.50
2024-02-04T21:32:46.237Z,99418.13
2024-02-04T21:35:13.674Z,99436.44
2024-02-04T21:37:40.968Z,99420.09
2024-02-04T21:40:08.970Z,99430.66
2024-02-04T21:42:36.612Z,99405.69
2024-02-04T21:45:04.777Z,99427.53
2024-02-04T21:47:34.669Z,99409.56
2024-02-04T21:50:02.910Z,99422.78
2024-02-04T21:52:30.345Z,99421.16
2024-02-04T21:54:57.794Z,99419.06
2024-02-04T21:57:24.997Z,99417.72
2024-02-04T21:59:52.371Z,99415.50
2024-02-04T22:02:19.572Z,99396.38
2024-02-04T22:04:46.935Z,99405.66
2024-02-04T22:07:14.334Z,99408.81
2024-02-04T22:09:41.659Z,99399.25
2024-02-04T22:12:09.101Z,99403.78
2024-02-04T22:14:36.385Z,99386.13
2024-02-04T22:17:04.133Z,99407.09
2024-02-04T22:19:31.508Z,99397.97
2024-02-04T22:21:58.963Z,99402.50
2024-02-04T22:24:26.233Z,99393.38
2024-02-04T22:26:56.398Z,99388.66
2024-02-04T22:29:23.858Z,99392.69
2024-02-04T22:31:51.214Z,99391.72
2024-02-04T22:34:18.675Z,99391.06
2024-02-04T22:36:45.830Z,99384.16
2024-02-04T22:39:13.122Z,99384.06
2024-02-04T22:41:43.888Z,99372.34
2024-02-04T22:44:11.606Z,99388.41
2024-02-04T22:46:38.898Z,99382.91
2024-02-04T22:49:07.128Z,99385.97
2024-02-04T22:51:36.385Z,99376.31
2024-02-04T22:54:04.387Z,99374.28
2024-02-04T22:56:32.204Z,99378.88
2024-02-04T22:59:00.123Z,99371.53
2024-02-04T23:01:29.030Z,99361.75
2024-02-04T23:03:59.289Z,99339.56
2024-02-04T23:06:29.861Z,99346.31
2024-02-04T23:08:57.235Z,99365.88
2024-02-04T23:11:26.264Z,99360.63
2024-02-04T23:13:53.498Z,99363.50
2024-02-04T23:16:21.295Z,99361.84
2024-02-04T23:18:48.820Z,99364.59
2024-02-04T23:21:16.786Z,99357.75
2024-02-04T23:23:43.945Z,99359.81
2024-02-04T23:26:11.198Z,99360.19
2024-02-04T23:28:38.446Z,99355.56
2024-02-04T23:31:05.754Z,99362.28
2024-02-04T23:33:32.967Z,99353.41
2024-02-04T23:36:00.434Z,99358.34
2024-02-04T23:38:27.674Z,99337.34
2024-02-04T23:40:54.920Z,99346.81
2024-02-04T23:43:22.274Z,99334.41
2024-02-04T23:45:49.743Z,99340.63
2024-02-04T23:48:16.984Z,99344.31
2024-02-04T23:50:44.965Z,99339.81
2024-02-04T23:53:12.124Z,99337.56
2024-02-04T23:55:39.549Z,99327.25
2024-02-04T23:58:06.807Z,99326.97
